sensor_id;sensor_type;location;lat;lon;timestamp;P1;durP1;ratioP1;P2;durP2;ratioP2
16073;SDS011;8141;52.664;5.074;2023-04-03T00:01:14;1.60;;;0.50;;
16073;SDS011;8141;52.664;5.074;2023-04-03T00:03:41;0.73;;;0.53;;
16073;SDS011;8141;52.664;5.074;2023-04-03T00:08:35;0.37;;;0.37;;
16073;SDS011;8141;52.664;5.074;2023-04-03T00:11:01;0.47;;;0.40;;
16073;SDS011;8141;52.664;5.074;2023-04-03T00:13:28;0.30;;;0.27;;
16073;SDS011;8141;52.664;5.074;2023-04-03T00:15:54;0.40;;;0.30;;
16073;SDS011;8141;52.664;5.074;2023-04-03T00:20:45;0.60;;;0.40;;
16073;SDS011;8141;52.664;5.074;2023-04-03T00:23:12;1.17;;;0.50;;
16073;SDS011;8141;52.664;5.074;2023-04-03T00:28:04;0.43;;;0.30;;
16073;SDS011;8141;52.664;5.074;2023-04-03T00:30:30;0.30;;;0.30;;
16073;SDS011;8141;52.664;5.074;2023-04-03T00:32:56;0.97;;;0.50;;
16073;SDS011;8141;52.664;5.074;2023-04-03T00:35:23;1.67;;;0.50;;
16073;SDS011;8141;52.664;5.074;2023-04-03T00:37:53;1.97;;;0.77;;
16073;SDS011;8141;52.664;5.074;2023-04-03T00:40:20;2.20;;;0.60;;
16073;SDS011;8141;52.664;5.074;2023-04-03T00:42:51;1.13;;;0.57;;
16073;SDS011;8141;52.664;5.074;2023-04-03T00:48:01;0.90;;;0.40;;
16073;SDS011;8141;52.664;5.074;2023-04-03T00:50:31;0.77;;;0.60;;
16073;SDS011;8141;52.664;5.074;2023-04-03T00:53:01;0.77;;;0.40;;
16073;SDS011;8141;52.664;5.074;2023-04-03T00:55:30;1.17;;;0.50;;
16073;SDS011;8141;52.664;5.074;2023-04-03T00:57:56;1.23;;;0.73;;
16073;SDS011;8141;52.664;5.074;2023-04-03T01:00:24;3.20;;;0.60;;
16073;SDS011;8141;52.664;5.074;2023-04-03T01:02:50;1.73;;;0.60;;
16073;SDS011;8141;52.664;5.074;2023-04-03T01:05:17;2.43;;;0.50;;
16073;SDS011;8141;52.664;5.074;2023-04-03T01:07:44;1.03;;;0.50;;
16073;SDS011;8141;52.664;5.074;2023-04-03T01:10:12;0.80;;;0.60;;
16073;SDS011;8141;52.664;5.074;2023-04-03T01:12:41;0.70;;;0.47;;
16073;SDS011;8141;52.664;5.074;2023-04-03T01:15:14;1.10;;;0.50;;
16073;SDS011;8141;52.664;5.074;2023-04-03T01:17:51;2.25;;;0.60;;
16073;SDS011;8141;52.664;5.074;2023-04-03T01:25:40;0.67;;;0.40;;
16073;SDS011;8141;52.664;5.074;2023-04-03T01:28:14;0.70;;;0.33;;
16073;SDS011;8141;52.664;5.074;2023-04-03T01:31:06;1.97;;;0.40;;
16073;SDS011;8141;52.664;5.074;2023-04-03T01:34:00;0.40;;;0.33;;
16073;SDS011;8141;52.664;5.074;2023-04-03T01:36:29;0.60;;;0.40;;
16073;SDS011;8141;52.664;5.074;2023-04-03T01:38:57;0.60;;;0.60;;
16073;SDS011;8141;52.664;5.074;2023-04-03T01:41:24;0.90;;;0.53;;
16073;SDS011;8141;52.664;5.074;2023-04-03T01:43:51;1.90;;;0.63;;
16073;SDS011;8141;52.664;5.074;2023-04-03T01:48:43;0.63;;;0.43;;
16073;SDS011;8141;52.664;5.074;2023-04-03T01:53:35;1.03;;;0.50;;
16073;SDS011;8141;52.664;5.074;2023-04-03T01:56:01;1.10;;;0.50;;
16073;SDS011;8141;52.664;5.074;2023-04-03T02:00:52;1.10;;;0.50;;
16073;SDS011;8141;52.664;5.074;2023-04-03T02:03:18;0.53;;;0.50;;
16073;SDS011;8141;52.664;5.074;2023-04-03T02:05:45;1.10;;;0.50;;
16073;SDS011;8141;52.664;5.074;2023-04-03T02:10:37;1.17;;;0.60;;
16073;SDS011;8141;52.664;5.074;2023-04-03T02:13:02;0.50;;;0.43;;
16073;SDS011;8141;52.664;5.074;2023-04-03T02:17:54;1.47;;;0.90;;
16073;SDS011;8141;52.664;5.074;2023-04-03T02:22:46;0.50;;;0.40;;
16073;SDS011;8141;52.664;5.074;2023-04-03T02:25:13;0.97;;;0.47;;
16073;SDS011;8141;52.664;5.074;2023-04-03T02:27:39;0.53;;;0.40;;
16073;SDS011;8141;52.664;5.074;2023-04-03T02:30:06;11.00;;;1.20;;
16073;SDS011;8141;52.664;5.074;2023-04-03T02:32:34;0.93;;;0.60;;
16073;SDS011;8141;52.664;5.074;2023-04-03T02:37:25;0.90;;;0.60;;
16073;SDS011;8141;52.664;5.074;2023-04-03T02:42:17;0.60;;;0.37;;
16073;SDS011;8141;52.664;5.074;2023-04-03T02:47:08;0.90;;;0.40;;
16073;SDS011;8141;52.664;5.074;2023-04-03T02:51:59;0.67;;;0.50;;
16073;SDS011;8141;52.664;5.074;2023-04-03T02:56:53;0.73;;;0.50;;
16073;SDS011;8141;52.664;5.074;2023-04-03T03:01:45;2.33;;;0.80;;
16073;SDS011;8141;52.664;5.074;2023-04-03T03:04:11;0.50;;;0.40;;
16073;SDS011;8141;52.664;5.074;2023-04-03T03:09:03;0.37;;;0.37;;
16073;SDS011;8141;52.664;5.074;2023-04-03T03:11:29;0.40;;;0.40;;
16073;SDS011;8141;52.664;5.074;2023-04-03T03:13:55;1.33;;;0.40;;
16073;SDS011;8141;52.664;5.074;2023-04-03T03:16:21;4.83;;;0.53;;
16073;SDS011;8141;52.664;5.074;2023-04-03T03:21:12;1.20;;;0.57;;
16073;SDS011;8141;52.664;5.074;2023-04-03T03:23:38;0.43;;;0.37;;
16073;SDS011;8141;52.664;5.074;2023-04-03T03:26:06;0.70;;;0.40;;
16073;SDS011;8141;52.664;5.074;2023-04-03T03:28:35;1.57;;;0.47;;
16073;SDS011;8141;52.664;5.074;2023-04-03T03:31:02;1.13;;;0.53;;
16073;SDS011;8141;52.664;5.074;2023-04-03T03:33:29;1.60;;;0.40;;
16073;SDS011;8141;52.664;5.074;2023-04-03T03:35:55;0.63;;;0.40;;
16073;SDS011;8141;52.664;5.074;2023-04-03T03:38:21;1.93;;;0.60;;
16073;SDS011;8141;52.664;5.074;2023-04-03T03:40:47;0.40;;;0.30;;
16073;SDS011;8141;52.664;5.074;2023-04-03T03:43:15;1.27;;;0.40;;
16073;SDS011;8141;52.664;5.074;2023-04-03T03:45:41;1.03;;;0.33;;
16073;SDS011;8141;52.664;5.074;2023-04-03T03:48:08;1.13;;;0.40;;
16073;SDS011;8141;52.664;5.074;2023-04-03T03:52:59;2.00;;;0.97;;
16073;SDS011;8141;52.664;5.074;2023-04-03T03:55:25;2.27;;;0.60;;
16073;SDS011;8141;52.664;5.074;2023-04-03T04:00:17;1.63;;;0.40;;
16073;SDS011;8141;52.664;5.074;2023-04-03T04:02:43;0.70;;;0.37;;
16073;SDS011;8141;52.664;5.074;2023-04-03T04:05:09;2.23;;;1.10;;
16073;SDS011;8141;52.664;5.074;2023-04-03T04:07:35;0.67;;;0.40;;
16073;SDS011;8141;52.664;5.074;2023-04-03T04:12:27;1.00;;;0.47;;
16073;SDS011;8141;52.664;5.074;2023-04-03T04:17:18;0.97;;;0.37;;
16073;SDS011;8141;52.664;5.074;2023-04-03T04:19:44;1.83;;;1.00;;
16073;SDS011;8141;52.664;5.074;2023-04-03T04:22:10;0.73;;;0.57;;
16073;SDS011;8141;52.664;5.074;2023-04-03T04:27:02;4.27;;;0.77;;
16073;SDS011;8141;52.664;5.074;2023-04-03T04:29:28;0.97;;;0.33;;
16073;SDS011;8141;52.664;5.074;2023-04-03T04:34:19;0.80;;;0.50;;
16073;SDS011;8141;52.664;5.074;2023-04-03T04:36:45;1.10;;;0.40;;
16073;SDS011;8141;52.664;5.074;2023-04-03T04:41:36;2.43;;;1.17;;
16073;SDS011;8141;52.664;5.074;2023-04-03T04:46:27;2.30;;;0.73;;
16073;SDS011;8141;52.664;5.074;2023-04-03T04:48:53;3.00;;;0.97;;
16073;SDS011;8141;52.664;5.074;2023-04-03T04:53:45;2.33;;;0.93;;
16073;SDS011;8141;52.664;5.074;2023-04-03T04:58:36;1.70;;;0.80;;
16073;SDS011;8141;52.664;5.074;2023-04-03T05:01:03;2.63;;;1.00;;
16073;SDS011;8141;52.664;5.074;2023-04-03T05:03:32;2.10;;;1.10;;
16073;SDS011;8141;52.664;5.074;2023-04-03T05:05:59;3.73;;;1.10;;
16073;SDS011;8141;52.664;5.074;2023-04-03T05:10:50;3.87;;;0.90;;
16073;SDS011;8141;52.664;5.074;2023-04-03T05:13:18;3.23;;;1.20;;
16073;SDS011;8141;52.664;5.074;2023-04-03T05:15:45;5.63;;;1.23;;
16073;SDS011;8141;52.664;5.074;2023-04-03T05:18:11;2.90;;;1.03;;
16073;SDS011;8141;52.664;5.074;2023-04-03T05:20:37;2.13;;;0.80;;
16073;SDS011;8141;52.664;5.074;2023-04-03T05:25:29;2.00;;;1.20;;
16073;SDS011;8141;52.664;5.074;2023-04-03T05:30:20;1.90;;;1.20;;
16073;SDS011;8141;52.664;5.074;2023-04-03T05:35:12;2.53;;;1.07;;
16073;SDS011;8141;52.664;5.074;2023-04-03T05:40:04;1.83;;;1.00;;
16073;SDS011;8141;52.664;5.074;2023-04-03T05:42:31;2.37;;;1.07;;
16073;SDS011;8141;52.664;5.074;2023-04-03T05:47:22;2.50;;;1.20;;
16073;SDS011;8141;52.664;5.074;2023-04-03T05:52:20;1.90;;;1.20;;
16073;SDS011;8141;52.664;5.074;2023-04-03T05:54:50;3.65;;;1.35;;
16073;SDS011;8141;52.664;5.074;2023-04-03T05:59:42;2.97;;;1.23;;
16073;SDS011;8141;52.664;5.074;2023-04-03T06:02:10;1.67;;;1.37;;
16073;SDS011;8141;52.664;5.074;2023-04-03T06:04:37;3.23;;;1.10;;
16073;SDS011;8141;52.664;5.074;2023-04-03T06:09:29;2.47;;;1.20;;
16073;SDS011;8141;52.664;5.074;2023-04-03T06:11:55;3.27;;;1.00;;
16073;SDS011;8141;52.664;5.074;2023-04-03T06:14:23;3.67;;;1.30;;
16073;SDS011;8141;52.664;5.074;2023-04-03T06:16:50;2.53;;;1.10;;
16073;SDS011;8141;52.664;5.074;2023-04-03T06:19:17;2.50;;;1.07;;
16073;SDS011;8141;52.664;5.074;2023-04-03T06:21:43;1.83;;;0.90;;
16073;SDS011;8141;52.664;5.074;2023-04-03T06:24:09;3.60;;;1.90;;
16073;SDS011;8141;52.664;5.074;2023-04-03T06:26:40;4.33;;;1.20;;
16073;SDS011;8141;52.664;5.074;2023-04-03T06:29:07;1.87;;;0.90;;
16073;SDS011;8141;52.664;5.074;2023-04-03T06:31:33;2.43;;;0.90;;
16073;SDS011;8141;52.664;5.074;2023-04-03T06:34:01;3.70;;;1.27;;
16073;SDS011;8141;52.664;5.074;2023-04-03T06:36:28;3.53;;;1.30;;
16073;SDS011;8141;52.664;5.074;2023-04-03T06:38:54;2.77;;;1.10;;
16073;SDS011;8141;52.664;5.074;2023-04-03T06:41:20;2.90;;;1.57;;
16073;SDS011;8141;52.664;5.074;2023-04-03T06:43:46;2.53;;;1.20;;
16073;SDS011;8141;52.664;5.074;2023-04-03T06:46:16;3.50;;;0.97;;
16073;SDS011;8141;52.664;5.074;2023-04-03T06:48:44;3.17;;;1.27;;
16073;SDS011;8141;52.664;5.074;2023-04-03T06:51:17;2.53;;;1.20;;
16073;SDS011;8141;52.664;5.074;2023-04-03T06:53:48;2.80;;;1.20;;
16073;SDS011;8141;52.664;5.074;2023-04-03T06:56:16;4.30;;;1.20;;
16073;SDS011;8141;52.664;5.074;2023-04-03T07:01:09;3.15;;;1.00;;
16073;SDS011;8141;52.664;5.074;2023-04-03T07:03:37;1.93;;;1.17;;
16073;SDS011;8141;52.664;5.074;2023-04-03T07:06:03;2.10;;;1.00;;
16073;SDS011;8141;52.664;5.074;2023-04-03T07:08:31;4.70;;;1.50;;
16073;SDS011;8141;52.664;5.074;2023-04-03T07:10:59;1.70;;;1.00;;
16073;SDS011;8141;52.664;5.074;2023-04-03T07:13:25;2.67;;;0.90;;
16073;SDS011;8141;52.664;5.074;2023-04-03T07:15:51;2.20;;;1.00;;
16073;SDS011;8141;52.664;5.074;2023-04-03T07:18:17;1.90;;;1.33;;
16073;SDS011;8141;52.664;5.074;2023-04-03T07:20:44;3.10;;;1.07;;
16073;SDS011;8141;52.664;5.074;2023-04-03T07:23:10;3.13;;;1.17;;
16073;SDS011;8141;52.664;5.074;2023-04-03T07:28:02;2.65;;;1.20;;
16073;SDS011;8141;52.664;5.074;2023-04-03T07:30:28;5.90;;;1.37;;
16073;SDS011;8141;52.664;5.074;2023-04-03T07:35:20;2.67;;;1.33;;
16073;SDS011;8141;52.664;5.074;2023-04-03T07:40:11;4.57;;;1.27;;
16073;SDS011;8141;52.664;5.074;2023-04-03T07:45:03;3.20;;;1.10;;
16073;SDS011;8141;52.664;5.074;2023-04-03T07:47:29;2.30;;;1.03;;
16073;SDS011;8141;52.664;5.074;2023-04-03T07:49:56;2.60;;;1.30;;
16073;SDS011;8141;52.664;5.074;2023-04-03T07:52:23;3.53;;;1.40;;
16073;SDS011;8141;52.664;5.074;2023-04-03T07:54:49;6.47;;;1.37;;
16073;SDS011;8141;52.664;5.074;2023-04-03T07:59:41;2.20;;;1.00;;
16073;SDS011;8141;52.664;5.074;2023-04-03T08:02:12;3.33;;;1.93;;
16073;SDS011;8141;52.664;5.074;2023-04-03T08:04:38;3.37;;;1.33;;
16073;SDS011;8141;52.664;5.074;2023-04-03T08:09:30;1.87;;;1.00;;
16073;SDS011;8141;52.664;5.074;2023-04-03T08:11:56;3.43;;;1.60;;
16073;SDS011;8141;52.664;5.074;2023-04-03T08:14:23;2.73;;;1.40;;
16073;SDS011;8141;52.664;5.074;2023-04-03T08:16:49;6.40;;;2.43;;
16073;SDS011;8141;52.664;5.074;2023-04-03T08:21:43;3.83;;;1.50;;
16073;SDS011;8141;52.664;5.074;2023-04-03T08:24:10;3.73;;;1.40;;
16073;SDS011;8141;52.664;5.074;2023-04-03T08:26:37;3.97;;;1.33;;
16073;SDS011;8141;52.664;5.074;2023-04-03T08:29:03;3.90;;;1.37;;
16073;SDS011;8141;52.664;5.074;2023-04-03T08:31:29;3.17;;;1.20;;
16073;SDS011;8141;52.664;5.074;2023-04-03T08:36:23;4.73;;;1.60;;
16073;SDS011;8141;52.664;5.074;2023-04-03T08:38:52;3.40;;;1.27;;
16073;SDS011;8141;52.664;5.074;2023-04-03T08:46:40;3.10;;;1.27;;
16073;SDS011;8141;52.664;5.074;2023-04-03T08:49:14;2.97;;;1.07;;
16073;SDS011;8141;52.664;5.074;2023-04-03T08:51:52;3.20;;;1.50;;
16073;SDS011;8141;52.664;5.074;2023-04-03T08:57:20;2.70;;;1.27;;
16073;SDS011;8141;52.664;5.074;2023-04-03T09:00:01;2.70;;;1.03;;
16073;SDS011;8141;52.664;5.074;2023-04-03T09:02:38;3.87;;;1.93;;
16073;SDS011;8141;52.664;5.074;2023-04-03T09:05:15;1.07;;;0.83;;
16073;SDS011;8141;52.664;5.074;2023-04-03T09:07:55;2.83;;;1.10;;
16073;SDS011;8141;52.664;5.074;2023-04-03T09:23:34;2.27;;;1.10;;
16073;SDS011;8141;52.664;5.074;2023-04-03T09:26:23;2.83;;;1.00;;
16073;SDS011;8141;52.664;5.074;2023-04-03T09:28:54;2.07;;;1.07;;
16073;SDS011;8141;52.664;5.074;2023-04-03T09:31:26;1.23;;;0.83;;
16073;SDS011;8141;52.664;5.074;2023-04-03T09:33:58;1.50;;;0.70;;
16073;SDS011;8141;52.664;5.074;2023-04-03T09:39:17;2.23;;;1.33;;
16073;SDS011;8141;52.664;5.074;2023-04-03T09:44:26;2.10;;;0.80;;
16073;SDS011;8141;52.664;5.074;2023-04-03T09:46:54;1.17;;;0.80;;
16073;SDS011;8141;52.664;5.074;2023-04-03T09:51:46;1.00;;;0.80;;
16073;SDS011;8141;52.664;5.074;2023-04-03T09:57:06;1.97;;;0.73;;
16073;SDS011;8141;52.664;5.074;2023-04-03T09:59:40;5.27;;;1.47;;
16073;SDS011;8141;52.664;5.074;2023-04-03T10:02:28;3.23;;;1.17;;
16073;SDS011;8141;52.664;5.074;2023-04-03T10:05:05;1.63;;;0.70;;
16073;SDS011;8141;52.664;5.074;2023-04-03T10:10:39;1.43;;;0.73;;
16073;SDS011;8141;52.664;5.074;2023-04-03T10:13:09;1.30;;;0.77;;
16073;SDS011;8141;52.664;5.074;2023-04-03T10:15:54;2.80;;;0.80;;
16073;SDS011;8141;52.664;5.074;2023-04-03T10:21:57;1.97;;;0.67;;
16073;SDS011;8141;52.664;5.074;2023-04-03T10:27:42;1.13;;;0.60;;
16073;SDS011;8141;52.664;5.074;2023-04-03T10:33:27;1.30;;;0.68;;
16073;SDS011;8141;52.664;5.074;2023-04-03T10:36:28;1.73;;;0.70;;
16073;SDS011;8141;52.664;5.074;2023-04-03T10:45:01;1.70;;;0.50;;
16073;SDS011;8141;52.664;5.074;2023-04-03T10:47:44;0.97;;;0.70;;
16073;SDS011;8141;52.664;5.074;2023-04-03T10:58:33;1.23;;;0.53;;
16073;SDS011;8141;52.664;5.074;2023-04-03T11:01:19;1.63;;;0.60;;
16073;SDS011;8141;52.664;5.074;2023-04-03T11:04:00;1.52;;;0.80;;
16073;SDS011;8141;52.664;5.074;2023-04-03T11:11:49;0.80;;;0.43;;
16073;SDS011;8141;52.664;5.074;2023-04-03T11:14:28;2.83;;;0.80;;
16073;SDS011;8141;52.664;5.074;2023-04-03T11:17:10;2.13;;;0.50;;
16073;SDS011;8141;52.664;5.074;2023-04-03T11:22:36;1.50;;;0.87;;
16073;SDS011;8141;52.664;5.074;2023-04-03T11:30:25;1.17;;;0.60;;
16073;SDS011;8141;52.664;5.074;2023-04-03T11:35:53;3.07;;;0.60;;
16073;SDS011;8141;52.664;5.074;2023-04-03T11:38:26;1.27;;;0.50;;
16073;SDS011;8141;52.664;5.074;2023-04-03T11:41:04;1.30;;;0.63;;
16073;SDS011;8141;52.664;5.074;2023-04-03T11:43:33;2.70;;;0.43;;
16073;SDS011;8141;52.664;5.074;2023-04-03T11:46:22;2.47;;;0.50;;
16073;SDS011;8141;52.664;5.074;2023-04-03T12:08:36;1.27;;;0.77;;
16073;SDS011;8141;52.664;5.074;2023-04-03T12:35:24;1.83;;;0.77;;
16073;SDS011;8141;52.664;5.074;2023-04-03T12:46:57;1.00;;;0.60;;
16073;SDS011;8141;52.664;5.074;2023-04-03T12:52:02;3.80;;;;;
16073;SDS011;8141;52.664;5.074;2023-04-03T12:54:50;1.07;;;0.70;;
16073;SDS011;8141;52.664;5.074;2023-04-03T12:57:18;1.00;;;0.60;;
16073;SDS011;8141;52.664;5.074;2023-04-03T12:59:47;0.87;;;0.50;;
16073;SDS011;8141;52.664;5.074;2023-04-03T13:02:21;0.60;;;0.50;;
16073;SDS011;8141;52.664;5.074;2023-04-03T13:04:55;4.07;;;0.80;;
16073;SDS011;8141;52.664;5.074;2023-04-03T13:07:24;1.10;;;0.57;;
16073;SDS011;8141;52.664;5.074;2023-04-03T13:12:35;10.40;;;1.27;;
16073;SDS011;8141;52.664;5.074;2023-04-03T13:15:19;2.67;;;1.00;;
16073;SDS011;8141;52.664;5.074;2023-04-03T13:17:51;1.17;;;0.57;;
16073;SDS011;8141;52.664;5.074;2023-04-03T13:20:23;2.00;;;0.70;;
16073;SDS011;8141;52.664;5.074;2023-04-03T13:25:28;5.63;;;1.00;;
16073;SDS011;8141;52.664;5.074;2023-04-03T13:27:59;2.43;;;0.80;;
16073;SDS011;8141;52.664;5.074;2023-04-03T13:32:57;1.27;;;0.60;;
16073;SDS011;8141;52.664;5.074;2023-04-03T13:35:37;1.20;;;0.73;;
16073;SDS011;8141;52.664;5.074;2023-04-03T13:38:28;2.53;;;0.90;;
16073;SDS011;8141;52.664;5.074;2023-04-03T13:40:59;2.23;;;0.70;;
16073;SDS011;8141;52.664;5.074;2023-04-03T13:43:32;1.27;;;0.70;;
16073;SDS011;8141;52.664;5.074;2023-04-03T13:46:02;1.63;;;0.60;;
16073;SDS011;8141;52.664;5.074;2023-04-03T13:48:36;0.53;;;0.33;;
16073;SDS011;8141;52.664;5.074;2023-04-03T13:53:43;2.47;;;0.80;;
16073;SDS011;8141;52.664;5.074;2023-04-03T14:07:08;1.00;;;0.70;;
16073;SDS011;8141;52.664;5.074;2023-04-03T14:09:36;1.93;;;0.40;;
16073;SDS011;8141;52.664;5.074;2023-04-03T14:12:04;2.30;;;0.70;;
16073;SDS011;8141;52.664;5.074;2023-04-03T14:14:36;2.03;;;0.80;;
16073;SDS011;8141;52.664;5.074;2023-04-03T14:17:09;1.07;;;0.40;;
16073;SDS011;8141;52.664;5.074;2023-04-03T14:19:45;0.80;;;0.60;;
16073;SDS011;8141;52.664;5.074;2023-04-03T14:22:15;1.20;;;0.57;;
16073;SDS011;8141;52.664;5.074;2023-04-03T14:24:47;2.30;;;0.80;;
16073;SDS011;8141;52.664;5.074;2023-04-03T14:27:23;2.43;;;0.70;;
16073;SDS011;8141;52.664;5.074;2023-04-03T14:29:53;1.97;;;0.90;;
16073;SDS011;8141;52.664;5.074;2023-04-03T14:32:22;2.37;;;0.67;;
16073;SDS011;8141;52.664;5.074;2023-04-03T14:34:49;1.40;;;0.60;;
16073;SDS011;8141;52.664;5.074;2023-04-03T14:37:21;1.77;;;0.70;;
16073;SDS011;8141;52.664;5.074;2023-04-03T14:39:51;0.80;;;0.60;;
16073;SDS011;8141;52.664;5.074;2023-04-03T14:42:20;1.53;;;0.70;;
16073;SDS011;8141;52.664;5.074;2023-04-03T14:44:50;0.97;;;0.50;;
16073;SDS011;8141;52.664;5.074;2023-04-03T14:47:18;1.90;;;0.80;;
16073;SDS011;8141;52.664;5.074;2023-04-03T14:49:47;1.70;;;0.70;;
16073;SDS011;8141;52.664;5.074;2023-04-03T14:54:50;1.50;;;0.50;;
16073;SDS011;8141;52.664;5.074;2023-04-03T14:57:16;3.27;;;0.90;;
16073;SDS011;8141;52.664;5.074;2023-04-03T14:59:43;1.73;;;0.70;;
16073;SDS011;8141;52.664;5.074;2023-04-03T15:02:22;0.90;;;0.57;;
16073;SDS011;8141;52.664;5.074;2023-04-03T15:04:51;3.93;;;0.80;;
16073;SDS011;8141;52.664;5.074;2023-04-03T15:07:17;1.83;;;0.60;;
16073;SDS011;8141;52.664;5.074;2023-04-03T15:12:09;0.90;;;0.50;;
16073;SDS011;8141;52.664;5.074;2023-04-03T15:17:01;0.80;;;0.67;;
16073;SDS011;8141;52.664;5.074;2023-04-03T15:19:28;1.83;;;0.80;;
16073;SDS011;8141;52.664;5.074;2023-04-03T15:21:57;1.27;;;0.80;;
16073;SDS011;8141;52.664;5.074;2023-04-03T15:26:49;2.60;;;0.90;;
16073;SDS011;8141;52.664;5.074;2023-04-03T15:31:40;1.17;;;0.60;;
16073;SDS011;8141;52.664;5.074;2023-04-03T15:36:31;1.20;;;0.70;;
16073;SDS011;8141;52.664;5.074;2023-04-03T15:38:58;2.27;;;1.00;;
16073;SDS011;8141;52.664;5.074;2023-04-03T15:43:49;1.00;;;0.80;;
16073;SDS011;8141;52.664;5.074;2023-04-03T15:48:40;1.70;;;0.73;;
16073;SDS011;8141;52.664;5.074;2023-04-03T15:53:32;1.13;;;0.60;;
16073;SDS011;8141;52.664;5.074;2023-04-03T15:58:23;2.00;;;0.80;;
16073;SDS011;8141;52.664;5.074;2023-04-03T16:00:50;0.83;;;0.60;;
16073;SDS011;8141;52.664;5.074;2023-04-03T16:03:17;2.53;;;0.97;;
16073;SDS011;8141;52.664;5.074;2023-04-03T16:05:45;2.07;;;0.63;;
16073;SDS011;8141;52.664;5.074;2023-04-03T16:08:12;1.73;;;1.00;;
16073;SDS011;8141;52.664;5.074;2023-04-03T16:10:38;2.17;;;1.00;;
16073;SDS011;8141;52.664;5.074;2023-04-03T16:13:05;1.50;;;0.60;;
16073;SDS011;8141;52.664;5.074;2023-04-03T16:15:31;1.83;;;0.80;;
16073;SDS011;8141;52.664;5.074;2023-04-03T16:17:59;2.77;;;0.70;;
16073;SDS011;8141;52.664;5.074;2023-04-03T16:22:51;2.23;;;1.00;;
16073;SDS011;8141;52.664;5.074;2023-04-03T16:27:42;2.83;;;0.90;;
16073;SDS011;8141;52.664;5.074;2023-04-03T16:30:08;4.90;;;0.97;;
16073;SDS011;8141;52.664;5.074;2023-04-03T16:32:35;1.77;;;0.60;;
16073;SDS011;8141;52.664;5.074;2023-04-03T16:35:03;1.93;;;0.90;;
16073;SDS011;8141;52.664;5.074;2023-04-03T16:37:29;2.43;;;1.07;;
16073;SDS011;8141;52.664;5.074;2023-04-03T16:42:21;4.18;;;0.82;;
16073;SDS011;8141;52.664;5.074;2023-04-03T16:47:13;0.60;;;0.50;;
16073;SDS011;8141;52.664;5.074;2023-04-03T16:52:04;3.67;;;0.87;;
16073;SDS011;8141;52.664;5.074;2023-04-03T16:54:31;0.90;;;0.80;;
16073;SDS011;8141;52.664;5.074;2023-04-03T16:56:57;3.80;;;0.80;;
16073;SDS011;8141;52.664;5.074;2023-04-03T17:01:49;2.23;;;0.80;;
16073;SDS011;8141;52.664;5.074;2023-04-03T17:04:15;0.90;;;0.60;;
16073;SDS011;8141;52.664;5.074;2023-04-03T17:06:41;3.13;;;1.00;;
16073;SDS011;8141;52.664;5.074;2023-04-03T17:14:00;1.67;;;0.93;;
16073;SDS011;8141;52.664;5.074;2023-04-03T17:16:26;1.20;;;0.90;;
16073;SDS011;8141;52.664;5.074;2023-04-03T17:18:54;4.53;;;1.03;;
16073;SDS011;8141;52.664;5.074;2023-04-03T17:21:20;1.77;;;0.97;;
16073;SDS011;8141;52.664;5.074;2023-04-03T17:23:48;4.70;;;1.30;;
16073;SDS011;8141;52.664;5.074;2023-04-03T17:26:17;1.57;;;0.73;;
16073;SDS011;8141;52.664;5.074;2023-04-03T17:28:43;1.53;;;0.80;;
16073;SDS011;8141;52.664;5.074;2023-04-03T17:33:35;1.73;;;0.97;;
16073;SDS011;8141;52.664;5.074;2023-04-03T17:38:29;1.30;;;0.90;;
16073;SDS011;8141;52.664;5.074;2023-04-03T17:40:57;1.20;;;0.80;;
16073;SDS011;8141;52.664;5.074;2023-04-03T17:43:28;2.20;;;0.70;;
16073;SDS011;8141;52.664;5.074;2023-04-03T17:48:27;7.00;;;2.10;;
16073;SDS011;8141;52.664;5.074;2023-04-03T17:50:57;5.07;;;0.90;;
16073;SDS011;8141;52.664;5.074;2023-04-03T17:53:23;3.03;;;0.83;;
16073;SDS011;8141;52.664;5.074;2023-04-03T17:55:51;3.27;;;0.93;;
16073;SDS011;8141;52.664;5.074;2023-04-03T18:00:42;6.57;;;0.80;;
16073;SDS011;8141;52.664;5.074;2023-04-03T18:03:08;3.30;;;0.97;;
16073;SDS011;8141;52.664;5.074;2023-04-03T18:08:01;1.92;;;0.85;;
16073;SDS011;8141;52.664;5.074;2023-04-03T18:10:27;1.57;;;0.90;;
16073;SDS011;8141;52.664;5.074;2023-04-03T18:12:53;1.47;;;0.80;;
16073;SDS011;8141;52.664;5.074;2023-04-03T18:15:19;2.07;;;1.00;;
16073;SDS011;8141;52.664;5.074;2023-04-03T18:20:13;0.93;;;0.70;;
16073;SDS011;8141;52.664;5.074;2023-04-03T18:22:40;3.33;;;0.97;;
16073;SDS011;8141;52.664;5.074;2023-04-03T18:27:32;0.73;;;0.70;;
16073;SDS011;8141;52.664;5.074;2023-04-03T18:32:32;7.10;;;1.33;;
16073;SDS011;8141;52.664;5.074;2023-04-03T18:37:23;3.60;;;1.10;;
16073;SDS011;8141;52.664;5.074;2023-04-03T18:39:50;5.17;;;1.77;;
16073;SDS011;8141;52.664;5.074;2023-04-03T18:42:17;4.57;;;1.20;;
16073;SDS011;8141;52.664;5.074;2023-04-03T18:44:50;6.67;;;1.30;;
16073;SDS011;8141;52.664;5.074;2023-04-03T18:47:21;3.60;;;1.40;;
16073;SDS011;8141;52.664;5.074;2023-04-03T18:49:47;3.73;;;1.30;;
16073;SDS011;8141;52.664;5.074;2023-04-03T18:54:38;5.70;;;1.23;;
16073;SDS011;8141;52.664;5.074;2023-04-03T18:57:05;1.70;;;1.10;;
16073;SDS011;8141;52.664;5.074;2023-04-03T19:01:56;2.33;;;1.40;;
16073;SDS011;8141;52.664;5.074;2023-04-03T19:04:24;1.33;;;0.90;;
16073;SDS011;8141;52.664;5.074;2023-04-03T19:06:51;2.70;;;1.43;;
16073;SDS011;8141;52.664;5.074;2023-04-03T19:11:43;1.23;;;0.97;;
16073;SDS011;8141;52.664;5.074;2023-04-03T19:16:35;1.67;;;0.93;;
16073;SDS011;8141;52.664;5.074;2023-04-03T19:19:00;2.07;;;1.10;;
16073;SDS011;8141;52.664;5.074;2023-04-03T19:21:26;2.00;;;0.93;;
16073;SDS011;8141;52.664;5.074;2023-04-03T19:23:52;2.60;;;1.20;;
16073;SDS011;8141;52.664;5.074;2023-04-03T19:26:19;6.50;;;0.87;;
16073;SDS011;8141;52.664;5.074;2023-04-03T19:28:45;2.57;;;0.83;;
16073;SDS011;8141;52.664;5.074;2023-04-03T19:31:15;1.10;;;0.87;;
16073;SDS011;8141;52.664;5.074;2023-04-03T19:33:44;2.30;;;1.17;;
16073;SDS011;8141;52.664;5.074;2023-04-03T19:36:11;1.80;;;1.03;;
16073;SDS011;8141;52.664;5.074;2023-04-03T19:38:38;0.90;;;0.70;;
16073;SDS011;8141;52.664;5.074;2023-04-03T19:41:05;2.00;;;0.93;;
16073;SDS011;8141;52.664;5.074;2023-04-03T19:43:34;2.10;;;0.80;;
16073;SDS011;8141;52.664;5.074;2023-04-03T19:46:00;1.57;;;0.70;;
16073;SDS011;8141;52.664;5.074;2023-04-03T19:48:26;1.37;;;1.00;;
16073;SDS011;8141;52.664;5.074;2023-04-03T19:53:18;1.43;;;0.80;;
16073;SDS011;8141;52.664;5.074;2023-04-03T19:55:46;2.27;;;0.80;;
16073;SDS011;8141;52.664;5.074;2023-04-03T19:58:13;1.63;;;1.00;;
16073;SDS011;8141;52.664;5.074;2023-04-03T20:00:39;0.60;;;0.60;;
16073;SDS011;8141;52.664;5.074;2023-04-03T20:05:30;1.57;;;0.80;;
16073;SDS011;8141;52.664;5.074;2023-04-03T20:07:57;2.70;;;0.80;;
16073;SDS011;8141;52.664;5.074;2023-04-03T20:12:48;0.80;;;0.60;;
16073;SDS011;8141;52.664;5.074;2023-04-03T20:15:15;0.87;;;0.60;;
16073;SDS011;8141;52.664;5.074;2023-04-03T20:17:41;0.97;;;0.63;;
16073;SDS011;8141;52.664;5.074;2023-04-03T20:20:08;1.97;;;0.80;;
16073;SDS011;8141;52.664;5.074;2023-04-03T20:22:35;1.10;;;0.80;;
16073;SDS011;8141;52.664;5.074;2023-04-03T20:25:04;0.83;;;0.63;;
16073;SDS011;8141;52.664;5.074;2023-04-03T20:27:33;0.90;;;0.73;;
16073;SDS011;8141;52.664;5.074;2023-04-03T20:30:00;1.67;;;0.60;;
16073;SDS011;8141;52.664;5.074;2023-04-03T20:32:32;1.03;;;0.83;;
16073;SDS011;8141;52.664;5.074;2023-04-03T20:34:59;0.83;;;0.60;;
16073;SDS011;8141;52.664;5.074;2023-04-03T20:37:25;0.70;;;0.50;;
16073;SDS011;8141;52.664;5.074;2023-04-03T20:39:51;0.93;;;0.63;;
16073;SDS011;8141;52.664;5.074;2023-04-03T20:42:17;0.70;;;0.60;;
16073;SDS011;8141;52.664;5.074;2023-04-03T20:44:43;0.77;;;0.70;;
16073;SDS011;8141;52.664;5.074;2023-04-03T20:47:10;0.77;;;0.70;;
16073;SDS011;8141;52.664;5.074;2023-04-03T20:49:37;1.63;;;1.37;;
16073;SDS011;8141;52.664;5.074;2023-04-03T20:54:29;1.00;;;0.70;;
16073;SDS011;8141;52.664;5.074;2023-04-03T20:56:55;1.80;;;0.93;;
16073;SDS011;8141;52.664;5.074;2023-04-03T21:01:48;1.55;;;0.88;;
16073;SDS011;8141;52.664;5.074;2023-04-03T21:04:26;1.57;;;1.03;;
16073;SDS011;8141;52.664;5.074;2023-04-03T21:22:10;1.10;;;0.77;;